Time;durP1;ratioP1;P1;durP2;ratioP2;P2;SDS_P1;SDS_P2;PMS_P1;PMS_P2;Temp;Humidity;BMP_temperature;BMP_pressure;BME280_temperature;BME280_humidity;BME280_pressure;Samples;Min_cycle;Max_cycle;Signal;HPM_P1;HPM_P2
2022/10/04 00:01:11;;;;;;;13.73;8.73;;;;;;;10.65;100.00;102196.66;5251857;28;20047;-72
2022/10/04 00:03:47;;;;;;;15.00;8.65;;;;;;;10.63;100.00;102203.91;5262813;28;20108;-72
2022/10/04 00:06:24;;;;;;;14.38;8.88;;;;;;;10.73;100.00;102197.94;5254717;28;20028;-71
2022/10/04 00:09:11;;;;;;;15.48;9.63;;;;;;;10.64;100.00;102200.28;5264782;28;20033;-72
2022/10/04 00:11:45;;;;;;;15.95;9.50;;;;;;;10.75;100.00;102201.41;5254900;28;20453;-71
2022/10/04 00:14:36;;;;;;;18.42;10.48;;;;;;;10.72;100.00;102188.22;5262524;28;20027;-72
2022/10/04 00:17:13;;;;;;;13.45;8.73;;;;;;;10.76;100.00;102187.13;5255405;28;20482;-71
2022/10/04 00:19:47;;;;;;;15.10;9.60;;;;;;;10.73;100.00;102181.06;5255484;28;20076;-71
2022/10/04 00:22:30;;;;;;;16.73;9.32;;;;;;;10.82;100.00;102182.38;5246154;28;20067;-71
2022/10/04 00:25:08;;;;;;;15.25;9.93;;;;;;;10.72;100.00;102184.69;5253092;28;20091;-72
2022/10/04 00:28:18;;;;;;;13.60;9.38;;;;;;;10.80;100.00;102174.47;5258617;28;20069;-72
2022/10/04 00:31:09;;;;;;;14.63;9.30;;;;;;;10.72;100.00;102174.00;5250541;28;20090;-72
2022/10/04 00:33:43;;;;;;;13.32;9.98;;;;;;;10.57;100.00;102167.72;5253543;28;21436;-71
2022/10/04 00:36:24;;;;;;;17.65;10.18;;;;;;;10.55;100.00;102161.63;5249976;28;20037;-72
2022/10/04 00:39:03;;;;;;;16.52;10.20;;;;;;;10.50;100.00;102169.00;5251102;28;20048;-71
2022/10/04 00:41:45;;;;;;;14.52;9.98;;;;;;;10.52;100.00;102162.63;5262849;28;20037;-72
2022/10/04 00:44:23;;;;;;;15.50;10.20;;;;;;;10.50;100.00;102166.34;5250165;28;20357;-72
2022/10/04 00:46:57;;;;;;;15.73;9.25;;;;;;;10.47;100.00;102178.06;5253747;28;20028;-71
2022/10/04 00:49:31;;;;;;;;;;;;;;;10.57;100.00;102181.94;5248288;28;20044;-72
2022/10/04 00:52:11;;;;;;;16.10;9.32;;;;;;;10.52;100.00;102175.97;5250370;28;20242;-72
2022/10/04 00:54:50;;;;;;;15.60;10.68;;;;;;;10.44;100.00;102169.34;5254654;28;21715;-71
2022/10/04 00:57:51;;;;;;;16.48;10.20;;;;;;;10.48;100.00;102169.09;5252999;28;20039;-72
2022/10/04 01:00:24;;;;;;;14.82;11.48;;;;;;;10.35;100.00;102160.03;5248250;28;20126;-72
2022/10/04 01:03:05;;;;;;;14.25;10.02;;;;;;;10.34;100.00;102150.31;5241721;28;20048;-72
2022/10/04 01:05:41;;;;;;;17.42;11.18;;;;;;;10.30;100.00;102154.06;5255926;28;20094;-71
2022/10/04 01:08:16;;;;;;;15.65;10.30;;;;;;;10.37;100.00;102148.34;5255645;28;20029;-71
2022/10/04 01:11:05;;;;;;;14.73;10.10;;;;;;;10.35;100.00;102133.34;5249763;28;20487;-71
2022/10/04 01:13:49;;;;;;;16.50;11.10;;;;;;;10.28;100.00;102134.59;5263352;28;20617;-72
2022/10/04 01:16:28;;;;;;;17.08;10.00;;;;;;;10.23;100.00;102134.84;5255519;28;20082;-72
2022/10/04 01:19:48;;;;;;;17.83;10.43;;;;;;;10.31;100.00;102126.47;5249193;28;20040;-71
2022/10/04 01:22:49;;;;;;;16.17;10.38;;;;;;;10.25;100.00;102124.09;5172851;28;20049;-71
2022/10/04 01:25:43;;;;;;;14.75;10.93;;;;;;;10.19;100.00;102127.97;5167305;28;20050;-72
2022/10/04 01:28:15;;;;;;;16.58;10.13;;;;;;;10.12;100.00;102124.75;5247608;28;20051;-72
2022/10/04 01:30:47;;;;;;;16.15;11.13;;;;;;;10.08;100.00;102115.19;5253746;28;20107;-72
2022/10/04 01:33:18;;;;;;;16.90;10.63;;;;;;;10.06;100.00;102113.56;5253736;28;20020;-71
2022/10/04 01:35:50;;;;;;;16.55;11.52;;;;;;;10.01;100.00;102121.84;5249748;28;20033;-71
2022/10/04 01:38:21;;;;;;;16.83;11.40;;;;;;;9.97;100.00;102123.81;5249737;28;20855;-71
2022/10/04 01:40:59;;;;;;;15.50;11.00;;;;;;;10.05;100.00;102119.84;5256973;28;20387;-71
2022/10/04 01:43:38;;;;;;;15.77;11.20;;;;;;;9.98;100.00;102120.16;5260347;28;20518;-71
2022/10/04 01:46:15;;;;;;;14.02;10.98;;;;;;;9.97;100.00;102109.59;5254817;28;20071;-71
2022/10/04 01:48:47;;;;;;;16.73;11.25;;;;;;;9.95;100.00;102112.34;5250830;28;21120;-71
2022/10/04 01:51:34;;;;;;;20.15;12.07;;;;;;;9.97;100.00;102104.25;5250928;28;20109;-72
2022/10/04 01:54:10;;;;;;;16.40;11.15;;;;;;;9.92;100.00;102115.19;5264282;28;20586;-72
2022/10/04 01:56:51;;;;;;;17.75;11.88;;;;;;;9.98;100.00;102106.00;5259573;28;20064;-71
2022/10/04 01:59:27;;;;;;;16.08;11.57;;;;;;;9.88;100.00;102113.63;5255408;28;20040;-71
2022/10/04 02:02:06;;;;;;;18.60;12.43;;;;;;;9.87;100.00;102111.03;5251457;28;20029;-72
2022/10/04 02:04:40;;;;;;;17.40;12.00;;;;;;;10.05;100.00;102101.16;5263187;28;20062;-72
2022/10/04 02:07:13;;;;;;;18.63;12.40;;;;;;;9.85;100.00;102103.09;5254266;28;20471;-71
2022/10/04 02:09:48;;;;;;;15.75;12.75;;;;;;;9.82;100.00;102097.97;5261558;28;20031;-71
2022/10/04 02:12:20;;;;;;;16.88;12.10;;;;;;;9.77;100.00;102092.00;5254896;28;20031;-71
2022/10/04 02:14:54;;;;;;;20.35;12.45;;;;;;;9.75;100.00;102089.41;5259225;28;20024;-71
2022/10/04 02:17:27;;;;;;;;;;;;;;;9.88;100.00;102086.09;5251608;28;20028;-71
2022/10/04 02:20:01;;;;;;;17.88;11.43;;;;;;;9.81;100.00;102081.09;5251720;28;19928;-71
2022/10/04 02:22:32;;;;;;;17.35;11.77;;;;;;;9.73;100.00;102069.97;5254108;28;20375;-71
2022/10/04 02:25:04;;;;;;;19.30;12.25;;;;;;;9.63;100.00;102074.09;5249638;28;20024;-71
2022/10/04 02:27:36;;;;;;;21.05;12.18;;;;;;;9.57;100.00;102071.75;5253602;28;20058;-71
2022/10/04 02:30:10;;;;;;;21.20;12.48;;;;;;;9.69;100.00;102057.75;5255530;28;20025;-71
2022/10/04 02:32:58;;;;;;;19.02;12.57;;;;;;;9.65;100.00;102050.03;5260078;28;20040;-71
2022/10/04 02:35:43;;;;;;;17.05;13.15;;;;;;;9.62;100.00;102048.38;5253547;28;20382;-71
2022/10/04 02:38:24;;;;;;;19.33;12.07;;;;;;;9.61;100.00;102039.50;5247526;28;20884;-71
2022/10/04 02:41:05;;;;;;;22.08;12.57;;;;;;;9.60;100.00;102039.59;5244526;28;20032;-71
2022/10/04 02:43:53;;;;;;;19.80;13.18;;;;;;;9.67;100.00;102033.00;5246656;28;20677;-71
2022/10/04 02:46:32;;;;;;;17.40;11.95;;;;;;;9.55;100.00;102034.53;5243071;28;20037;-71
2022/10/04 02:49:11;;;;;;;18.63;12.75;;;;;;;9.59;100.00;102028.09;5249880;28;20114;-71
2022/10/04 02:51:48;;;;;;;17.90;12.32;;;;;;;9.54;100.00;102015.94;5252536;28;20641;-71
2022/10/04 02:54:36;;;;;;;18.48;12.93;;;;;;;9.52;100.00;102007.19;5250062;28;20032;-71
2022/10/04 02:57:19;;;;;;;19.83;13.82;;;;;;;9.50;100.00;102001.94;5256517;28;20140;-71
2022/10/04 03:00:03;;;;;;;20.23;12.95;;;;;;;9.47;100.00;101991.41;5253573;28;20801;-71
2022/10/04 03:02:34;;;;;;;21.23;13.15;;;;;;;9.41;100.00;101989.97;5249367;28;20032;-71
2022/10/04 03:05:08;;;;;;;22.00;13.27;;;;;;;9.47;100.00;101990.56;5259589;28;20493;-71
2022/10/04 03:07:41;;;;;;;17.67;13.52;;;;;;;9.42;100.00;101993.50;5248396;28;20646;-71
2022/10/04 03:10:14;;;;;;;21.35;13.98;;;;;;;9.44;100.00;101980.94;5253334;28;20269;-71
2022/10/04 03:12:49;;;;;;;21.58;14.07;;;;;;;9.39;100.00;101977.66;5247010;28;20031;-71
2022/10/04 03:15:21;;;;;;;22.52;13.93;;;;;;;9.45;100.00;101993.31;5248312;28;20387;-72
2022/10/04 03:17:52;;;;;;;21.60;14.13;;;;;;;9.31;100.00;101993.19;5245751;28;20037;-71
2022/10/04 03:20:24;;;;;;;23.30;13.77;;;;;;;9.29;100.00;101990.59;5248947;28;20616;-72
2022/10/04 03:22:56;;;;;;;27.05;13.98;;;;;;;9.37;100.00;101991.06;5251781;28;20406;-71
2022/10/04 03:25:34;;;;;;;20.77;13.65;;;;;;;9.27;100.00;101986.31;5246155;28;20478;-71
2022/10/04 03:28:06;;;;;;;21.50;14.40;;;;;;;9.22;100.00;101976.75;5254261;28;20170;-71
2022/10/04 03:30:43;;;;;;;22.48;13.52;;;;;;;9.28;100.00;101982.69;5249708;28;20115;-71
2022/10/04 03:33:18;;;;;;;21.10;13.27;;;;;;;9.16;100.00;101982.38;5248865;28;20510;-71
2022/10/04 03:35:53;;;;;;;19.63;13.68;;;;;;;9.14;100.00;101984.28;5250419;28;20476;-71
2022/10/04 03:38:27;;;;;;;22.13;13.10;;;;;;;9.19;100.00;101974.25;5243060;28;20166;-71
2022/10/04 03:41:00;;;;;;;18.67;13.65;;;;;;;9.20;100.00;101965.34;5244228;28;20040;-71
2022/10/04 03:43:38;;;;;;;21.48;14.68;;;;;;;9.18;100.00;101961.00;5243155;28;20474;-71
2022/10/04 03:46:11;;;;;;;20.95;13.60;;;;;;;9.17;100.00;101962.81;5241679;28;20025;-71
2022/10/04 03:48:49;;;;;;;18.50;12.82;;;;;;;9.19;100.00;101958.28;5248502;28;20044;-71
2022/10/04 03:51:25;;;;;;;17.85;13.40;;;;;;;9.14;100.00;101967.44;5258143;28;20043;-71
2022/10/04 03:53:59;;;;;;;19.70;13.98;;;;;;;9.14;100.00;101951.47;5251631;28;20106;-71
2022/10/04 03:56:34;;;;;;;20.83;13.35;;;;;;;9.09;100.00;101950.84;5242650;28;20024;-71
2022/10/04 03:59:06;;;;;;;19.05;14.45;;;;;;;9.14;100.00;101952.31;5246904;28;20044;-71
2022/10/04 04:01:42;;;;;;;20.23;13.23;;;;;;;9.05;100.00;101949.28;5247864;28;20072;-71
2022/10/04 04:04:27;;;;;;;18.83;12.88;;;;;;;9.06;100.00;101951.03;5240608;28;20502;-71
2022/10/04 04:07:01;;;;;;;;;;;;;;;9.14;100.00;101949.66;5241088;28;20145;-71
2022/10/04 04:09:42;;;;;;;21.90;12.90;;;;;;;9.16;100.00;101947.78;5243015;28;19920;-71
2022/10/04 04:12:19;;;;;;;20.75;13.82;;;;;;;9.09;100.00;101951.72;5244374;28;20025;-71
2022/10/04 04:14:52;;;;;;;20.67;12.98;;;;;;;9.10;100.00;101950.78;5241236;28;20031;-71
2022/10/04 04:17:26;;;;;;;19.27;13.40;;;;;;;9.08;100.00;101947.31;5244692;28;20471;-71
2022/10/04 04:19:59;;;;;;;;;;;;;;;9.15;100.00;101950.53;5244459;28;20090;-71
2022/10/04 04:22:32;;;;;;;18.77;13.48;;;;;;;9.03;100.00;101952.91;5242774;28;19912;-71
2022/10/04 04:25:10;;;;;;;18.15;13.07;;;;;;;9.00;100.00;101954.88;5241228;28;21064;-72
2022/10/04 04:27:44;;;;;;;18.83;13.10;;;;;;;8.97;100.00;101952.34;5243241;28;20052;-71
2022/10/04 04:30:17;;;;;;;26.85;13.93;;;;;;;9.01;100.00;101951.25;5249688;28;20658;-71
2022/10/04 04:32:52;;;;;;;18.05;12.30;;;;;;;8.93;100.00;101959.63;5242712;28;20482;-71
2022/10/04 04:35:30;;;;;;;18.83;12.88;;;;;;;8.95;100.00;101954.22;5243405;28;20087;-71
2022/10/04 04:38:16;;;;;;;17.63;12.27;;;;;;;8.94;100.00;101960.50;5248071;28;20028;-71
2022/10/04 04:40:49;;;;;;;19.23;12.05;;;;;;;9.00;100.00;101952.19;5245536;28;20035;-71
2022/10/04 04:43:23;;;;;;;20.35;12.82;;;;;;;9.05;100.00;101947.50;5249749;28;20371;-71
2022/10/04 04:45:57;;;;;;;18.48;11.73;;;;;;;8.88;100.00;101944.84;5246847;28;20110;-71
2022/10/04 04:48:28;;;;;;;22.05;13.50;;;;;;;8.85;100.00;101948.53;5243637;28;20576;-71
2022/10/04 04:51:00;;;;;;;16.60;12.60;;;;;;;8.89;100.00;101928.78;5252868;28;20056;-71
2022/10/04 04:53:32;;;;;;;17.27;12.88;;;;;;;8.94;100.00;101932.09;5215708;28;1036463;-71
2022/10/04 04:56:05;;;;;;;19.88;13.18;;;;;;;8.82;100.00;101922.94;5253815;28;20033;-71
2022/10/04 04:58:44;;;;;;;19.10;12.20;;;;;;;8.85;100.00;101918.41;5255498;28;20375;-71
2022/10/04 05:01:26;;;;;;;19.70;12.77;;;;;;;8.88;100.00;101916.44;5255470;28;20032;-71
2022/10/04 05:04:12;;;;;;;21.02;12.68;;;;;;;8.83;100.00;101926.47;5255721;28;20036;-71
2022/10/04 05:07:02;;;;;;;18.23;12.07;;;;;;;8.87;100.00;101929.81;5263028;28;20032;-71
2022/10/04 05:09:37;;;;;;;21.13;12.52;;;;;;;8.82;100.00;101935.38;5254861;28;20052;-71
2022/10/04 05:12:22;;;;;;;18.23;13.00;;;;;;;8.74;100.00;101932.25;5254763;28;20424;-71
2022/10/04 05:14:53;;;;;;;;;;;;;;;8.81;100.00;101937.19;5256431;28;20116;-71
2022/10/04 05:17:32;;;;;;;20.77;12.15;;;;;;;8.66;100.00;101935.31;5253734;28;19982;-71
2022/10/04 05:20:04;;;;;;;20.98;12.63;;;;;;;8.63;100.00;101936.31;5256480;28;20037;-71
2022/10/04 05:22:38;;;;;;;17.77;11.55;;;;;;;8.62;100.00;101939.91;5265135;28;20059;-71
2022/10/04 05:25:18;;;;;;;20.85;11.52;;;;;;;8.69;100.00;101928.97;5262603;28;20032;-71
2022/10/04 05:27:50;;;;;;;19.40;11.40;;;;;;;8.66;100.00;101931.78;5260024;28;20108;-71
2022/10/04 05:30:46;;;;;;;17.35;11.05;;;;;;;8.61;100.00;101937.31;5254508;28;20028;-71
2022/10/04 05:33:25;;;;;;;16.10;10.00;;;;;;;8.52;100.00;101932.50;5258024;28;20066;-71
2022/10/04 05:36:40;;;;;;;15.50;10.50;;;;;;;8.57;100.00;101935.75;5252520;28;20048;-71
2022/10/04 05:39:24;;;;;;;16.15;9.90;;;;;;;8.60;100.00;101927.63;5260563;28;20035;-71
2022/10/04 05:42:10;;;;;;;;;;;;;;;8.61;100.00;101939.97;5248303;28;20024;-71
2022/10/04 05:44:50;;;;;;;15.98;10.02;;;;;;;8.46;100.00;101938.09;5255424;28;20216;-71
2022/10/04 05:47:28;;;;;;;14.75;10.00;;;;;;;8.41;100.00;101938.31;5251243;28;20024;-71
2022/10/04 05:49:59;;;;;;;16.98;9.85;;;;;;;8.39;100.00;101938.38;5254480;28;20103;-71
2022/10/04 05:52:38;;;;;;;16.33;9.73;;;;;;;8.38;100.00;101943.75;5263595;28;20127;-72
2022/10/04 05:55:20;;;;;;;14.73;9.65;;;;;;;8.36;100.00;101950.97;5258256;28;20036;-71
2022/10/04 05:58:03;;;;;;;17.80;9.88;;;;;;;8.36;100.00;101949.19;5263625;28;20040;-72
2022/10/04 06:01:20;;;;;;;15.45;9.30;;;;;;;8.35;100.00;101950.09;5257595;28;20498;-72
2022/10/04 06:04:03;;;;;;;13.32;8.98;;;;;;;8.41;100.00;101954.25;5268468;28;20023;-72
2022/10/04 06:06:41;;;;;;;16.77;9.18;;;;;;;8.37;100.00;101947.38;5262913;28;20504;-71
2022/10/04 06:10:09;;;;;;;16.35;9.77;;;;;;;8.50;100.00;101942.34;5264491;28;20378;-72
2022/10/04 06:12:54;;;;;;;20.50;9.32;;;;;;;8.46;100.00;101956.72;5206180;28;20065;-71
2022/10/04 06:15:31;;;;;;;;;;;;;;;8.55;100.00;101953.59;5203119;28;20523;-71
2022/10/04 06:18:23;;;;;;;14.43;8.45;;;;;;;8.56;100.00;101958.84;5251279;28;20373;-71
2022/10/04 06:21:17;;;;;;;16.13;8.20;;;;;;;8.56;100.00;101956.19;5263739;28;20037;-71
2022/10/04 06:24:14;;;;;;;11.32;7.45;;;;;;;8.65;100.00;101954.88;5268310;28;20047;-71
2022/10/04 06:26:52;;;;;;;12.65;8.40;;;;;;;8.62;100.00;101952.34;5251731;28;20049;-71
2022/10/04 06:29:31;;;;;;;17.35;7.80;;;;;;;8.63;100.00;101951.44;5261740;28;20020;-71
2022/10/04 06:32:25;;;;;;;13.88;7.63;;;;;;;8.79;100.00;101954.16;5261817;28;20115;-71
2022/10/04 06:35:07;;;;;;;14.82;7.40;;;;;;;8.79;100.00;101952.34;5266016;28;20029;-71
2022/10/04 06:38:01;;;;;;;13.55;7.47;;;;;;;8.81;100.00;101953.13;5264078;28;20024;-71
2022/10/04 06:40:50;;;;;;;13.07;7.30;;;;;;;8.89;100.00;101944.75;5261088;28;20044;-71
2022/10/04 06:43:30;;;;;;;12.02;7.50;;;;;;;8.92;100.00;101938.44;5261778;28;20038;-71
2022/10/04 06:46:07;;;;;;;13.93;7.40;;;;;;;8.80;100.00;101935.47;5258420;28;20044;-71
2022/10/04 06:49:07;;;;;;;12.45;7.47;;;;;;;8.83;100.00;101937.94;5259122;28;20028;-71
2022/10/04 06:52:18;;;;;;;14.55;6.85;;;;;;;8.81;100.00;101942.50;5250955;28;20025;-71
2022/10/04 06:55:08;;;;;;;12.07;7.22;;;;;;;8.83;100.00;101945.94;5253624;28;20037;-71
2022/10/04 06:58:07;;;;;;;12.85;6.97;;;;;;;8.83;100.00;101945.94;5255471;28;20047;-71
2022/10/04 07:01:20;;;;;;;17.05;7.70;;;;;;;8.79;100.00;101944.38;5264727;28;20166;-72
2022/10/04 07:04:14;;;;;;;13.75;7.15;;;;;;;8.79;100.00;101947.03;5250245;28;20056;-72
2022/10/04 07:07:25;;;;;;;12.80;7.03;;;;;;;8.83;100.00;101937.09;5230741;28;20040;-72
2022/10/04 07:10:22;;;;;;;11.00;7.07;;;;;;;8.89;100.00;101930.59;5267125;28;20366;-72
2022/10/04 07:13:02;;;;;;;14.35;7.20;;;;;;;8.85;100.00;101935.22;5270917;28;20108;-73
2022/10/04 07:16:12;;;;;;;15.95;7.18;;;;;;;8.87;100.00;101940.47;5270536;28;20032;-71
2022/10/04 07:18:53;;;;;;;14.07;7.32;;;;;;;8.86;100.00;101928.97;5267896;28;20074;-72
2022/10/04 07:21:35;;;;;;;9.98;7.10;;;;;;;8.89;100.00;101927.94;5258336;28;20029;-72
2022/10/04 07:24:10;;;;;;;12.40;7.03;;;;;;;8.94;100.00;101920.59;5263808;28;20364;-72
2022/10/04 07:26:47;;;;;;;12.05;7.47;;;;;;;8.87;100.00;101917.38;5264418;28;20118;-72
2022/10/04 07:29:27;;;;;;;14.30;7.25;;;;;;;8.91;100.00;101926.06;5266905;28;20467;-72
2022/10/04 07:32:04;;;;;;;14.38;7.68;;;;;;;8.92;100.00;101936.63;5268597;28;20037;-72
2022/10/04 07:35:03;;;;;;;13.63;7.70;;;;;;;8.92;100.00;101933.13;5259938;28;20471;-71
2022/10/04 07:37:58;;;;;;;12.60;7.07;;;;;;;8.95;100.00;101927.63;5265005;28;20043;-72
2022/10/04 07:40:35;;;;;;;26.77;9.40;;;;;;;9.03;100.00;101934.28;5263778;28;20391;-72
2022/10/04 07:43:19;;;;;;;19.17;8.57;;;;;;;9.01;100.00;101932.59;5257358;28;20112;-72
2022/10/04 07:46:02;;;;;;;14.18;7.53;;;;;;;9.02;100.00;101931.69;5258758;28;20043;-72
2022/10/04 07:48:39;;;;;;;14.30;8.00;;;;;;;9.13;100.00;101947.97;5265064;28;20028;-72
2022/10/04 07:51:29;;;;;;;14.63;8.13;;;;;;;9.17;100.00;101938.84;5263736;28;20043;-72
2022/10/04 07:54:16;;;;;;;13.32;7.88;;;;;;;9.16;100.00;101939.78;5265291;28;20675;-72
2022/10/04 07:56:59;;;;;;;13.57;7.88;;;;;;;9.25;100.00;101932.28;5257900;28;20090;-72
2022/10/04 07:59:39;;;;;;;19.23;8.00;;;;;;;9.23;100.00;101929.69;5265899;28;20040;-72
2022/10/04 08:02:41;;;;;;;12.57;8.05;;;;;;;9.25;100.00;101933.13;5259902;28;20201;-71
2022/10/04 08:05:31;;;;;;;13.32;7.63;;;;;;;9.34;100.00;101924.66;5257206;28;20421;-72
2022/10/04 08:08:34;;;;;;;12.07;8.13;;;;;;;9.37;100.00;101928.94;5260900;28;20060;-71
2022/10/04 08:11:18;;;;;;;14.20;7.40;;;;;;;9.45;100.00;101916.06;5260229;28;20458;-72
2022/10/04 08:14:18;;;;;;;14.77;7.78;;;;;;;9.54;100.00;101922.69;5266465;28;20032;-72
2022/10/04 08:17:16;;;;;;;14.48;8.20;;;;;;;9.55;100.00;101914.63;5259076;28;20492;-71
2022/10/04 08:20:13;;;;;;;16.42;8.05;;;;;;;9.59;100.00;101908.19;5258587;28;20028;-71
2022/10/04 08:23:39;;;;;;;13.63;7.50;;;;;;;9.72;100.00;101918.16;5272936;28;20094;-71
2022/10/04 08:26:13;;;;;;;;;;;;;;;9.72;100.00;101918.16;5209825;28;20042;-72
2022/10/04 08:32:28;;;;;;;17.50;8.13;;;;;;;9.86;100.00;101920.91;5253552;28;20522;-72
2022/10/04 08:35:15;;;;;;;13.50;7.22;;;;;;;10.06;100.00;101926.91;5262049;28;20047;-72
2022/10/04 08:38:18;;;;;;;13.32;7.68;;;;;;;10.05;100.00;101927.84;5265580;28;20038;-72
2022/10/04 08:41:27;;;;;;;13.45;7.18;;;;;;;10.06;100.00;101929.59;5259683;28;20063;-72
2022/10/04 08:44:16;;;;;;;15.75;7.80;;;;;;;10.12;100.00;101931.91;5263489;28;20132;-72
2022/10/04 08:47:04;;;;;;;12.57;7.82;;;;;;;10.16;100.00;101918.31;5268703;28;20112;-72
2022/10/04 08:49:56;;;;;;;14.25;7.72;;;;;;;10.37;100.00;101926.03;5264185;28;20391;-72
2022/10/04 08:52:50;;;;;;;14.70;8.13;;;;;;;10.43;100.00;101923.00;5261972;28;20056;-72
2022/10/04 08:55:24;;;;;;;18.30;9.70;;;;;;;10.51;100.00;101925.25;5259091;28;20033;-72
2022/10/04 08:58:23;;;;;;;14.13;8.35;;;;;;;10.63;100.00;101926.31;5263626;28;20093;-73
2022/10/04 09:01:32;;;;;;;13.30;8.38;;;;;;;10.68;100.00;101922.44;5267685;28;20066;-72
2022/10/04 09:04:21;;;;;;;13.95;8.13;;;;;;;10.98;100.00;101921.53;5270800;28;20051;-73
2022/10/04 09:07:07;;;;;;;13.60;8.32;;;;;;;10.93;100.00;101926.28;5268856;28;20028;-72
2022/10/04 09:09:43;;;;;;;17.13;9.13;;;;;;;10.97;100.00;101927.81;5266678;28;20032;-73
2022/10/04 09:12:36;;;;;;;15.70;7.93;;;;;;;11.24;100.00;101927.06;5265546;28;21073;-72
2022/10/04 09:15:52;;;;;;;14.30;9.13;;;;;;;11.17;100.00;101940.81;5272126;28;20025;-72
2022/10/04 09:18:29;;;;;;;16.10;8.57;;;;;;;11.32;100.00;101936.34;5254918;28;20154;-73
2022/10/04 09:21:17;;;;;;;15.52;8.82;;;;;;;11.43;100.00;101932.13;5266315;28;20033;-73
2022/10/04 09:24:09;;;;;;;17.33;8.50;;;;;;;11.50;100.00;101928.97;5264507;28;20033;-73
2022/10/04 09:26:49;;;;;;;12.65;7.97;;;;;;;11.62;100.00;101929.16;5260527;28;20039;-72
2022/10/04 09:29:48;;;;;;;19.40;10.32;;;;;;;11.65;100.00;101920.94;5239838;28;20467;-73
2022/10/04 09:32:47;;;;;;;14.55;8.07;;;;;;;11.81;100.00;101921.66;5271283;28;20518;-72
2022/10/04 09:35:31;;;;;;;13.70;8.07;;;;;;;11.88;100.00;101914.13;5263271;28;20520;-73
2022/10/04 09:38:19;;;;;;;12.32;7.15;;;;;;;11.96;100.00;101901.97;5265939;28;20025;-72
2022/10/04 09:41:33;;;;;;;12.10;7.30;;;;;;;12.11;100.00;101915.31;5267663;28;20032;-73
2022/10/04 09:44:44;;;;;;;12.85;6.70;;;;;;;12.15;100.00;101904.28;5259933;28;20044;-72
2022/10/04 09:47:30;;;;;;;11.05;6.35;;;;;;;12.27;100.00;101902.66;5262957;28;20086;-73
2022/10/04 09:50:38;;;;;;;10.40;6.40;;;;;;;12.47;100.00;101908.47;5257091;28;20037;-73
2022/10/04 09:53:20;;;;;;;12.43;5.88;;;;;;;12.49;100.00;101910.06;5263784;28;20135;-73
2022/10/04 09:56:14;;;;;;;12.65;6.80;;;;;;;12.52;100.00;101909.00;5256466;28;20033;-72
2022/10/04 09:59:02;;;;;;;15.30;6.97;;;;;;;12.55;100.00;101914.16;5261961;28;20115;-72
2022/10/04 10:01:42;;;;;;;10.65;6.40;;;;;;;12.64;100.00;101915.38;5260542;28;20079;-73
2022/10/04 10:04:39;;;;;;;14.68;6.35;;;;;;;12.75;100.00;101912.78;5264331;28;20087;-73
2022/10/04 10:07:30;;;;;;;13.45;6.25;;;;;;;12.79;100.00;101902.72;5260995;28;20498;-73
2022/10/04 10:13:41;;;;;;;13.30;6.80;;;;;;;12.93;100.00;101905.31;5266188;28;20048;-74
2022/10/04 10:16:31;;;;;;;10.48;6.15;;;;;;;13.00;100.00;101900.38;5265942;28;20040;-74
2022/10/04 10:19:27;;;;;;;12.23;6.50;;;;;;;12.97;100.00;101904.16;5268712;28;20037;-74
2022/10/04 10:22:13;;;;;;;12.18;5.88;;;;;;;13.02;100.00;101899.34;5263428;28;20043;-74
2022/10/04 10:25:21;;;;;;;10.60;6.40;;;;;;;13.06;100.00;101889.22;5270061;28;20083;-74
2022/10/04 10:28:33;;;;;;;12.00;6.00;;;;;;;13.12;100.00;101883.47;5269324;28;20114;-74
2022/10/04 10:31:16;;;;;;;11.50;6.30;;;;;;;13.09;100.00;101878.31;5206122;28;20040;-74
2022/10/04 10:34:09;;;;;;;13.25;7.18;;;;;;;13.21;100.00;101871.22;5260680;28;20035;-74
2022/10/04 10:37:01;;;;;;;11.30;5.57;;;;;;;13.22;100.00;101878.31;5260375;28;20063;-74
2022/10/04 10:40:24;;;;;;;13.23;6.50;;;;;;;13.27;100.00;101878.81;5257264;28;20479;-74
2022/10/04 10:43:17;;;;;;;12.25;6.47;;;;;;;13.38;100.00;101878.09;5257954;28;20085;-73
2022/10/04 10:45:58;;;;;;;11.02;6.05;;;;;;;13.46;100.00;101881.06;5258740;28;20453;-74
2022/10/04 10:48:49;;;;;;;13.15;5.75;;;;;;;13.60;100.00;101894.34;5261872;28;20024;-73
2022/10/04 10:51:54;;;;;;;11.43;5.50;;;;;;;13.73;100.00;101892.47;5264766;28;20027;-73
2022/10/04 10:54:37;;;;;;;;;;;;;;;13.84;100.00;101901.56;5259671;28;20051;-74
2022/10/04 10:57:27;;;;;;;12.75;5.50;;;;;;;13.83;100.00;101895.34;5272785;28;19959;-74
2022/10/04 11:00:17;;;;;;;8.35;5.05;;;;;;;13.85;100.00;101893.41;5269383;28;20482;-74
2022/10/04 11:03:33;;;;;;;11.85;5.68;;;;;;;13.87;100.00;101883.41;5262170;28;20139;-74
2022/10/04 11:06:13;;;;;;;8.05;4.82;;;;;;;13.88;100.00;101882.47;5261866;28;20025;-73
2022/10/04 11:09:12;;;;;;;11.05;5.70;;;;;;;13.94;100.00;101881.16;5270354;28;20776;-74
2022/10/04 11:12:11;;;;;;;8.70;5.13;;;;;;;13.93;100.00;101874.91;5274404;28;20031;-73
2022/10/04 11:14:45;;;;;;;10.68;5.22;;;;;;;13.97;100.00;101864.81;5260306;28;20025;-74
2022/10/04 11:17:33;;;;;;;8.80;5.38;;;;;;;14.19;100.00;101853.31;5262632;28;20114;-74
2022/10/04 11:20:41;;;;;;;9.20;4.60;;;;;;;14.22;100.00;101861.13;5261840;28;20036;-74
2022/10/04 11:23:47;;;;;;;7.50;4.40;;;;;;;14.29;100.00;101865.06;5253970;28;20029;-74
2022/10/04 11:26:55;;;;;;;11.38;4.53;;;;;;;14.34;100.00;101855.81;5266283;28;20044;-74
2022/10/04 11:29:29;;;;;;;8.93;4.45;;;;;;;14.49;100.00;101842.03;5260922;28;20352;-74
2022/10/04 11:32:01;;;;;;;9.15;4.85;;;;;;;14.39;100.00;101850.94;5257569;28;20156;-74
2022/10/04 11:34:58;;;;;;;7.78;4.15;;;;;;;14.41;100.00;101846.31;5258139;28;20558;-74
2022/10/04 11:37:45;;;;;;;8.82;4.72;;;;;;;14.46;100.00;101844.13;5260434;28;20031;-74
2022/10/04 11:40:25;;;;;;;9.93;3.65;;;;;;;14.63;100.00;101840.16;5259494;28;20055;-74
2022/10/04 11:43:05;;;;;;;8.65;4.22;;;;;;;14.63;100.00;101840.16;5264033;28;20029;-74
2022/10/04 11:46:00;;;;;;;6.65;3.70;;;;;;;14.61;100.00;101836.72;5255879;28;20035;-74
2022/10/04 11:48:52;;;;;;;10.48;4.60;;;;;;;14.65;100.00;101836.41;5261139;28;20029;-74
2022/10/04 11:52:16;;;;;;;7.47;3.83;;;;;;;14.79;100.00;101829.09;5262970;28;20029;-74
2022/10/04 11:55:21;;;;;;;6.88;3.33;;;;;;;14.88;100.00;101822.97;5261857;28;20044;-74
2022/10/04 11:58:13;;;;;;;7.53;3.60;;;;;;;15.08;100.00;101818.69;5267474;28;20056;-74
2022/10/04 12:01:15;;;;;;;6.78;3.10;;;;;;;15.28;100.00;101820.66;5265662;28;20137;-75
2022/10/04 12:04:09;;;;;;;5.75;3.40;;;;;;;15.29;100.00;101826.88;5276713;28;20036;-74
2022/10/04 12:07:12;;;;;;;6.28;2.92;;;;;;;15.35;100.00;101828.22;5271810;28;20032;-74
2022/10/04 12:10:16;;;;;;;7.60;3.20;;;;;;;15.40;100.00;101828.69;5265314;28;20032;-75
2022/10/04 12:13:08;;;;;;;6.55;3.30;;;;;;;15.52;100.00;101827.69;5274883;28;20033;-75
2022/10/04 12:16:05;;;;;;;8.63;3.30;;;;;;;15.53;100.00;101831.22;5264528;28;20035;-75
2022/10/04 12:19:14;;;;;;;6.40;3.25;;;;;;;15.66;100.00;101823.84;5263670;28;20043;-75
2022/10/04 12:21:57;;;;;;;7.72;3.25;;;;;;;15.64;100.00;101818.59;5264229;28;20040;-74
2022/10/04 12:24:39;;;;;;;7.32;3.45;;;;;;;15.68;100.00;101811.13;5274750;28;20055;-75
2022/10/04 12:28:11;;;;;;;7.82;3.88;;;;;;;15.78;100.00;101822.91;5260974;28;20037;-74
2022/10/04 12:31:01;;;;;;;7.68;3.25;;;;;;;15.84;99.11;101811.59;5205194;28;20464;-75
2022/10/04 12:33:53;;;;;;;6.55;3.10;;;;;;;15.64;100.00;101804.31;5272636;28;20077;-74
2022/10/04 12:36:49;;;;;;;8.13;3.70;;;;;;;15.63;100.00;101803.44;5263478;28;20037;-74
2022/10/04 12:39:29;;;;;;;7.00;3.45;;;;;;;15.63;99.60;101803.44;5268680;28;20032;-74
2022/10/04 12:42:23;;;;;;;6.10;3.22;;;;;;;15.69;100.00;101786.78;5270366;28;20040;-75
2022/10/04 12:45:32;;;;;;;5.70;3.17;;;;;;;15.71;100.00;101783.13;5271295;28;20111;-75